ETH1415 HAAB-FAOR
Flight info
| Callsign | ETH1415 |
|---|---|
| Flight time | N/A |
| Altitude | 38000 |
| Route | SHALA2A SHALA UM308 RUDOL/N0475F390 UM308 LOTAS/N0474F380 UM441 LOSIN UM315 EPMAB/N0475F400 UM315 USUBI UR409 VMV UP312 OKMUX UZ11 NESAG UZ7 OKPIT OKPIT1C |
| Aircraft | B77L/H-SDE1E2E3FGHIJ2J3J4J5M1RWXY/LB1D1 |
Departure
| Time | 2026-05-05 04:25 |
|---|---|
| Airport | Addis Ababa Bole International Airport (HAAB) |
Arrival
| Time | N/A |
|---|---|
| Airport | O.R. Tambo International Airport (FAOR) |
| Time | Latitude | Longitude | Altitude | Speed | Heading |
|---|---|---|---|---|---|
| 2026-05-05 04:21 | 8.98051 | 38.79328 | 7622 ft | 6 kts | 253° |
| 2026-05-05 04:21 | 8.98034 | 38.79270 | 7622 ft | 11 kts | 253° |
| 2026-05-05 04:21 | 8.98008 | 38.79183 | 7622 ft | 15 kts | 253° |
| 2026-05-05 04:21 | 8.97973 | 38.79066 | 7622 ft | 19 kts | 253° |
| 2026-05-05 04:22 | 8.97930 | 38.78924 | 7622 ft | 23 kts | 253° |
| 2026-05-05 04:22 | 8.97891 | 38.78793 | 7622 ft | 10 kts | 253° |
| 2026-05-05 04:22 | 8.97846 | 38.78746 | 7622 ft | 11 kts | 184° |
| 2026-05-05 04:22 | 8.97760 | 38.78762 | 7622 ft | 14 kts | 165° |
| 2026-05-05 04:23 | 8.97655 | 38.78791 | 7624 ft | 17 kts | 165° |
| 2026-05-05 04:23 | 8.97568 | 38.78869 | 7625 ft | 18 kts | 114° |
| 2026-05-05 04:23 | 8.97525 | 38.78984 | 7622 ft | 18 kts | 110° |
| 2026-05-05 04:23 | 8.97490 | 38.79101 | 7620 ft | 15 kts | 106° |
| 2026-05-05 04:24 | 8.97470 | 38.79162 | 7620 ft | 9 kts | 82° |
| 2026-05-05 04:24 | 8.97503 | 38.79320 | 7620 ft | 50 kts | 76° |
| 2026-05-05 04:24 | 8.97683 | 38.79893 | 7621 ft | 119 kts | 74° |
| 2026-05-05 04:25 | 8.98296 | 38.82140 | 8102 ft | 178 kts | 75° |
| 2026-05-05 04:25 | 8.98608 | 38.83351 | 8757 ft | 179 kts | 75° |
| 2026-05-05 04:25 | 8.98918 | 38.84626 | 9080 ft | 196 kts | 80° |
| 2026-05-05 04:25 | 8.98749 | 38.86027 | 9213 ft | 218 kts | 118° |
| 2026-05-05 04:26 | 8.97559 | 38.87048 | 9500 ft | 241 kts | 160° |
| 2026-05-05 04:26 | 8.95830 | 38.87134 | 9816 ft | 262 kts | 194° |
| 2026-05-05 04:26 | 8.94085 | 38.86417 | 10185 ft | 278 kts | 202° |
| 2026-05-05 04:26 | 8.92259 | 38.85683 | 10786 ft | 288 kts | 199° |
| 2026-05-05 04:27 | 8.90329 | 38.84975 | 11347 ft | 303 kts | 198° |
| 2026-05-05 04:27 | 8.88244 | 38.84243 | 11668 ft | 329 kts | 197° |
| 2026-05-05 04:27 | 8.86038 | 38.83471 | 12123 ft | 349 kts | 197° |
| 2026-05-05 04:27 | 8.83660 | 38.82643 | 12492 ft | 374 kts | 197° |
| 2026-05-05 04:28 | 8.81127 | 38.81763 | 13017 ft | 391 kts | 197° |
| 2026-05-05 04:28 | 8.78521 | 38.80866 | 13802 ft | 402 kts | 197° |
| 2026-05-05 04:28 | 8.75809 | 38.79946 | 14257 ft | 420 kts | 197° |
| 2026-05-05 04:28 | 8.73052 | 38.78997 | 15237 ft | 415 kts | 197° |
| 2026-05-05 04:29 | 8.70319 | 38.78056 | 16240 ft | 415 kts | 197° |
| 2026-05-05 04:29 | 8.67587 | 38.77119 | 17210 ft | 415 kts | 197° |
| 2026-05-05 04:29 | 8.64829 | 38.76170 | 17997 ft | 421 kts | 197° |
| 2026-05-05 04:29 | 8.62031 | 38.75202 | 18696 ft | 427 kts | 197° |
| 2026-05-05 04:30 | 8.59239 | 38.74227 | 19348 ft | 432 kts | 197° |
| 2026-05-05 04:30 | 8.56386 | 38.73225 | 20037 ft | 434 kts | 198° |
| 2026-05-05 04:30 | 8.53535 | 38.72214 | 20698 ft | 434 kts | 198° |
| 2026-05-05 04:30 | 8.50667 | 38.71180 | 21278 ft | 440 kts | 199° |
| 2026-05-05 04:31 | 8.47774 | 38.70117 | 21901 ft | 445 kts | 199° |
| 2026-05-05 04:31 | 8.44857 | 38.69015 | 22550 ft | 449 kts | 200° |
| 2026-05-05 04:31 | 8.41925 | 38.67878 | 23219 ft | 452 kts | 201° |
| 2026-05-05 04:31 | 8.38992 | 38.66702 | 23884 ft | 455 kts | 201° |
| 2026-05-05 04:32 | 8.36056 | 38.65480 | 24449 ft | 457 kts | 202° |
| 2026-05-05 04:32 | 8.33154 | 38.64233 | 24977 ft | 460 kts | 203° |
| 2026-05-05 04:32 | 8.30210 | 38.62928 | 25498 ft | 463 kts | 204° |
| 2026-05-05 04:32 | 8.27264 | 38.61581 | 25967 ft | 467 kts | 204° |
| 2026-05-05 04:33 | 8.24308 | 38.60187 | 26454 ft | 470 kts | 205° |
| 2026-05-05 04:33 | 8.21350 | 38.58749 | 26960 ft | 473 kts | 206° |
| 2026-05-05 04:33 | 8.18393 | 38.57265 | 27449 ft | 476 kts | 207° |
| 2026-05-05 04:33 | 8.15438 | 38.55734 | 27972 ft | 478 kts | 208° |
| 2026-05-05 04:34 | 8.12490 | 38.54156 | 28486 ft | 480 kts | 208° |
| 2026-05-05 04:34 | 8.09586 | 38.52550 | 29008 ft | 483 kts | 209° |
| 2026-05-05 04:34 | 8.06642 | 38.50868 | 29393 ft | 488 kts | 210° |
| 2026-05-05 04:34 | 8.03697 | 38.49130 | 29813 ft | 492 kts | 211° |
| 2026-05-05 04:35 | 8.00759 | 38.47337 | 30205 ft | 495 kts | 212° |
| 2026-05-05 04:35 | 7.97823 | 38.45486 | 30560 ft | 499 kts | 213° |
| 2026-05-05 04:35 | 7.94894 | 38.43579 | 30877 ft | 502 kts | 214° |
| 2026-05-05 04:35 | 7.91981 | 38.41624 | 31214 ft | 504 kts | 214° |
| 2026-05-05 04:36 | 7.89081 | 38.39620 | 31543 ft | 506 kts | 215° |
| 2026-05-05 04:36 | 7.86191 | 38.37563 | 31852 ft | 508 kts | 216° |
| 2026-05-05 04:36 | 7.83323 | 38.35462 | 32155 ft | 510 kts | 217° |
| 2026-05-05 04:36 | 7.80515 | 38.33350 | 32468 ft | 511 kts | 217° |
| 2026-05-05 04:37 | 7.77684 | 38.31168 | 32783 ft | 513 kts | 218° |
| 2026-05-05 04:37 | 7.74870 | 38.28945 | 33059 ft | 514 kts | 218° |
| 2026-05-05 04:37 | 7.72066 | 38.26677 | 33239 ft | 517 kts | 219° |
| 2026-05-05 04:37 | 7.69281 | 38.24368 | 33445 ft | 519 kts | 220° |
| 2026-05-05 04:38 | 7.66507 | 38.22014 | 33654 ft | 521 kts | 220° |
| 2026-05-05 04:38 | 7.63757 | 38.19625 | 33853 ft | 522 kts | 221° |
| 2026-05-05 04:38 | 7.61030 | 38.17200 | 34054 ft | 523 kts | 221° |
| 2026-05-05 04:38 | 7.58323 | 38.14738 | 34244 ft | 524 kts | 222° |
| 2026-05-05 04:39 | 7.55672 | 38.12271 | 34424 ft | 525 kts | 223° |
| 2026-05-05 04:39 | 7.53015 | 38.09738 | 34576 ft | 525 kts | 224° |
| 2026-05-05 04:39 | 7.50384 | 38.07166 | 34752 ft | 526 kts | 224° |
| 2026-05-05 04:39 | 7.47785 | 38.04556 | 34911 ft | 526 kts | 225° |
| 2026-05-05 04:40 | 7.45220 | 38.01911 | 35091 ft | 526 kts | 226° |
| 2026-05-05 04:40 | 7.42692 | 37.99230 | 35243 ft | 526 kts | 227° |
| 2026-05-05 04:40 | 7.40236 | 37.96550 | 35437 ft | 526 kts | 228° |
| 2026-05-05 04:40 | 7.37792 | 37.93808 | 35682 ft | 524 kts | 229° |
| 2026-05-05 04:41 | 7.35395 | 37.91036 | 35948 ft | 522 kts | 230° |
| 2026-05-05 04:41 | 7.33053 | 37.88250 | 36223 ft | 520 kts | 231° |
| 2026-05-05 04:41 | 7.31524 | 37.86387 | 36446 ft | 518 kts | 231° |
| 2026-05-05 04:41 | 7.28549 | 37.82650 | 36889 ft | 513 kts | 232° |
| 2026-05-05 04:42 | 7.26375 | 37.79814 | 37206 ft | 510 kts | 233° |
| 2026-05-05 04:42 | 7.24256 | 37.76953 | 37498 ft | 508 kts | 234° |
| 2026-05-05 04:42 | 7.22852 | 37.75003 | 37694 ft | 507 kts | 235° |
| 2026-05-05 04:42 | 7.20851 | 37.72137 | 37932 ft | 506 kts | 236° |
| 2026-05-05 04:43 | 7.18886 | 37.69213 | 38103 ft | 500 kts | 236° |
| 2026-05-05 04:43 | 7.16998 | 37.66298 | 37539 ft | 494 kts | 237° |
| 2026-05-05 04:43 | 7.15161 | 37.63358 | 36546 ft | 497 kts | 238° |
| 2026-05-05 04:43 | 7.13364 | 37.60377 | 35635 ft | 498 kts | 239° |
| 2026-05-05 04:44 | 7.11608 | 37.57359 | 34778 ft | 500 kts | 240° |
| 2026-05-05 04:44 | 7.09900 | 37.54323 | 34169 ft | 495 kts | 241° |
| 2026-05-05 04:44 | 7.08250 | 37.51292 | 33608 ft | 490 kts | 242° |
| 2026-05-05 04:44 | 7.06672 | 37.48301 | 33069 ft | 488 kts | 243° |
| 2026-05-05 04:45 | 7.05126 | 37.45270 | 32736 ft | 485 kts | 243° |
| 2026-05-05 04:45 | 7.02051 | 37.39202 | 33039 ft | 488 kts | 235° |
| 2026-05-05 04:45 | 6.99694 | 37.36720 | 33215 ft | 494 kts | 215° |
| 2026-05-05 04:46 | 6.96633 | 37.35168 | 33580 ft | 495 kts | 196° |
| 2026-05-05 04:46 | 6.93231 | 37.34733 | 34142 ft | 491 kts | 176° |
| 2026-05-05 04:46 | 6.89885 | 37.35284 | 34638 ft | 484 kts | 169° |
| 2026-05-05 04:46 | 6.86595 | 37.35827 | 34971 ft | 485 kts | 173° |
| 2026-05-05 04:47 | 6.83231 | 37.36166 | 35314 ft | 486 kts | 176° |
| 2026-05-05 04:47 | 6.79848 | 37.36349 | 35707 ft | 486 kts | 178° |
| 2026-05-05 04:47 | 6.76474 | 37.36438 | 36131 ft | 484 kts | 179° |
| 2026-05-05 04:47 | 6.73115 | 37.36484 | 36601 ft | 482 kts | 179° |
| 2026-05-05 04:48 | 6.69755 | 37.36518 | 37049 ft | 480 kts | 179° |
| 2026-05-05 04:48 | 6.66418 | 37.36556 | 37422 ft | 480 kts | 179° |
| 2026-05-05 04:48 | 6.63078 | 37.36602 | 37738 ft | 481 kts | 179° |
| 2026-05-05 04:48 | 6.59766 | 37.36657 | 37986 ft | 482 kts | 179° |
| 2026-05-05 04:49 | 6.56396 | 37.36719 | 38042 ft | 485 kts | 179° |
| 2026-05-05 04:49 | 6.49636 | 37.36853 | 38065 ft | 483 kts | 179° |
| 2026-05-05 04:50 | 6.42946 | 37.36990 | 38065 ft | 479 kts | 179° |
| 2026-05-05 04:50 | 6.36280 | 37.37123 | 38078 ft | 477 kts | 179° |
| 2026-05-05 04:51 | 6.29690 | 37.37253 | 38077 ft | 477 kts | 179° |
| 2026-05-05 04:51 | 6.23056 | 37.37385 | 38077 ft | 477 kts | 179° |
| 2026-05-05 04:52 | 6.16407 | 37.37517 | 38081 ft | 478 kts | 179° |
| 2026-05-05 04:52 | 6.09749 | 37.37649 | 38073 ft | 479 kts | 179° |
| 2026-05-05 04:53 | 6.03068 | 37.37781 | 38049 ft | 480 kts | 179° |
| 2026-05-05 04:53 | 5.96382 | 37.37914 | 38065 ft | 481 kts | 179° |
| 2026-05-05 04:54 | 5.89708 | 37.38046 | 38071 ft | 483 kts | 179° |
| 2026-05-05 04:54 | 5.82966 | 37.38180 | 38069 ft | 484 kts | 179° |
| 2026-05-05 04:55 | 5.76209 | 37.38314 | 38062 ft | 485 kts | 179° |
| 2026-05-05 04:55 | 5.69493 | 37.38447 | 38059 ft | 486 kts | 179° |
| 2026-05-05 04:56 | 5.62717 | 37.38581 | 38052 ft | 486 kts | 179° |
| 2026-05-05 04:56 | 5.55961 | 37.38715 | 38043 ft | 485 kts | 179° |
| 2026-05-05 04:57 | 5.49251 | 37.38847 | 38045 ft | 484 kts | 179° |
| 2026-05-05 04:57 | 5.42498 | 37.38981 | 38038 ft | 484 kts | 179° |
| 2026-05-05 04:58 | 5.35746 | 37.39114 | 38046 ft | 485 kts | 179° |
| 2026-05-05 04:58 | 5.29018 | 37.39248 | 38049 ft | 486 kts | 179° |
| 2026-05-05 04:59 | 5.22232 | 37.39382 | 38041 ft | 488 kts | 179° |
| 2026-05-05 04:59 | 5.15431 | 37.39516 | 38050 ft | 488 kts | 179° |
| 2026-05-05 05:00 | 5.08626 | 37.39650 | 38036 ft | 488 kts | 178° |
| 2026-05-05 05:00 | 5.01860 | 37.39784 | 38044 ft | 487 kts | 178° |
| 2026-05-05 05:01 | 4.95077 | 37.39918 | 38042 ft | 486 kts | 178° |
| 2026-05-05 05:01 | 4.88309 | 37.40052 | 38043 ft | 485 kts | 178° |
| 2026-05-05 05:02 | 4.81604 | 37.40184 | 38036 ft | 485 kts | 178° |
| 2026-05-05 05:02 | 4.74868 | 37.40318 | 38042 ft | 484 kts | 178° |
| 2026-05-05 05:03 | 4.68146 | 37.40450 | 38038 ft | 483 kts | 178° |
| 2026-05-05 05:03 | 4.61419 | 37.40583 | 38037 ft | 483 kts | 178° |
| 2026-05-05 05:04 | 4.54688 | 37.40716 | 38033 ft | 483 kts | 178° |
| 2026-05-05 05:04 | 4.47949 | 37.40849 | 38024 ft | 484 kts | 178° |
| 2026-05-05 05:05 | 4.41210 | 37.40982 | 38028 ft | 485 kts | 178° |
| 2026-05-05 05:05 | 4.34494 | 37.41114 | 38016 ft | 486 kts | 178° |
| 2026-05-05 05:06 | 4.27723 | 37.41248 | 38024 ft | 486 kts | 178° |
| 2026-05-05 05:06 | 4.20940 | 37.41381 | 38004 ft | 487 kts | 178° |
| 2026-05-05 05:07 | 4.14208 | 37.41514 | 38011 ft | 487 kts | 178° |
| 2026-05-05 05:07 | 4.07436 | 37.41647 | 37994 ft | 487 kts | 177° |
| 2026-05-05 05:08 | 4.00657 | 37.41535 | 37997 ft | 487 kts | 185° |
| 2026-05-05 05:08 | 3.94005 | 37.40230 | 37987 ft | 488 kts | 195° |
| 2026-05-05 05:09 | 3.87541 | 37.38288 | 37979 ft | 488 kts | 196° |
| 2026-05-05 05:09 | 3.81049 | 37.36315 | 37981 ft | 487 kts | 196° |
| 2026-05-05 05:10 | 3.74556 | 37.34373 | 37977 ft | 487 kts | 195° |
| 2026-05-05 05:10 | 3.68049 | 37.32449 | 37974 ft | 486 kts | 195° |
| 2026-05-05 05:11 | 3.61550 | 37.30532 | 37962 ft | 486 kts | 195° |
| 2026-05-05 05:11 | 3.55094 | 37.28628 | 37961 ft | 488 kts | 194° |
| 2026-05-05 05:12 | 3.48577 | 37.26708 | 37975 ft | 488 kts | 195° |
| 2026-05-05 05:12 | 3.42044 | 37.24780 | 37970 ft | 490 kts | 195° |
| 2026-05-05 05:13 | 3.35494 | 37.22845 | 37969 ft | 491 kts | 194° |
| 2026-05-05 05:13 | 3.28926 | 37.20906 | 37958 ft | 491 kts | 194° |
| 2026-05-05 05:14 | 3.22407 | 37.18983 | 37959 ft | 490 kts | 194° |
| 2026-05-05 05:14 | 3.15871 | 37.17054 | 37973 ft | 489 kts | 194° |
| 2026-05-05 05:15 | 3.09344 | 37.15130 | 37981 ft | 488 kts | 195° |
| 2026-05-05 05:15 | 3.02823 | 37.13208 | 37976 ft | 488 kts | 195° |
| 2026-05-05 05:16 | 2.96352 | 37.11300 | 37976 ft | 488 kts | 194° |
| 2026-05-05 05:16 | 2.89843 | 37.09381 | 37978 ft | 487 kts | 195° |
| 2026-05-05 05:17 | 2.83329 | 37.07461 | 37975 ft | 487 kts | 195° |
| 2026-05-05 05:17 | 2.76855 | 37.05552 | 37982 ft | 487 kts | 194° |
| 2026-05-05 05:18 | 2.70349 | 37.03635 | 37983 ft | 487 kts | 194° |
| 2026-05-05 05:18 | 2.63829 | 37.01714 | 37983 ft | 488 kts | 194° |
| 2026-05-05 05:19 | 2.57350 | 36.99805 | 37986 ft | 488 kts | 194° |
| 2026-05-05 05:19 | 2.50824 | 36.97882 | 37989 ft | 488 kts | 194° |
| 2026-05-05 05:20 | 2.44304 | 36.95962 | 37988 ft | 489 kts | 195° |
| 2026-05-05 05:20 | 2.37771 | 36.94037 | 37992 ft | 489 kts | 194° |
| 2026-05-05 05:21 | 2.31270 | 36.92122 | 38006 ft | 489 kts | 194° |
| 2026-05-05 05:21 | 2.24741 | 36.90200 | 38004 ft | 489 kts | 195° |
| 2026-05-05 05:22 | 2.18206 | 36.88275 | 38009 ft | 490 kts | 194° |
| 2026-05-05 05:22 | 2.11667 | 36.86350 | 38005 ft | 490 kts | 195° |
| 2026-05-05 05:23 | 2.05134 | 36.84426 | 37999 ft | 490 kts | 195° |
| 2026-05-05 05:23 | 1.98599 | 36.82502 | 38008 ft | 489 kts | 195° |
| 2026-05-05 05:24 | 1.92064 | 36.80578 | 38008 ft | 489 kts | 195° |
| 2026-05-05 05:24 | 1.85567 | 36.78666 | 38006 ft | 489 kts | 195° |
| 2026-05-05 05:25 | 1.79031 | 36.76742 | 38012 ft | 489 kts | 195° |
| 2026-05-05 05:25 | 1.72542 | 36.74833 | 38012 ft | 488 kts | 195° |
| 2026-05-05 05:26 | 1.66009 | 36.72910 | 38002 ft | 489 kts | 195° |
| 2026-05-05 05:26 | 1.59479 | 36.70989 | 38004 ft | 489 kts | 195° |
| 2026-05-05 05:27 | 1.52935 | 36.69063 | 38015 ft | 490 kts | 195° |
| 2026-05-05 05:27 | 1.43121 | 36.66175 | 38036 ft | 490 kts | 195° |
| 2026-05-05 05:28 | 1.36564 | 36.64246 | 38011 ft | 491 kts | 195° |
| 2026-05-05 05:28 | 1.30046 | 36.62329 | 38031 ft | 491 kts | 195° |
| 2026-05-05 05:29 | 1.23480 | 36.60397 | 38027 ft | 491 kts | 195° |
| 2026-05-05 05:29 | 1.16921 | 36.58467 | 38042 ft | 490 kts | 195° |
| 2026-05-05 05:30 | 1.10375 | 36.56541 | 38063 ft | 490 kts | 195° |
| 2026-05-05 05:30 | 1.03881 | 36.54631 | 38046 ft | 489 kts | 195° |
| 2026-05-05 05:31 | 0.97268 | 36.53069 | 38063 ft | 487 kts | 185° |
| 2026-05-05 05:31 | 0.90529 | 36.52403 | 38064 ft | 486 kts | 184° |
| 2026-05-05 05:32 | 0.84931 | 36.51899 | 38075 ft | 486 kts | 184° |
| 2026-05-05 05:32 | 0.77095 | 36.51154 | 38080 ft | 486 kts | 184° |
| 2026-05-05 05:33 | 0.71455 | 36.50596 | 38093 ft | 486 kts | 184° |
| 2026-05-05 05:33 | 0.64758 | 36.49927 | 38093 ft | 486 kts | 184° |
| 2026-05-05 05:34 | 0.58018 | 36.49254 | 38101 ft | 487 kts | 184° |
| 2026-05-05 05:34 | 0.51270 | 36.48582 | 38105 ft | 487 kts | 184° |
| 2026-05-05 05:35 | 0.44510 | 36.47910 | 38119 ft | 488 kts | 184° |
| 2026-05-05 05:35 | 0.37741 | 36.47236 | 38123 ft | 489 kts | 184° |
| 2026-05-05 05:36 | 0.30963 | 36.46562 | 38128 ft | 489 kts | 184° |
| 2026-05-05 05:36 | 0.24185 | 36.45888 | 38141 ft | 489 kts | 184° |
| 2026-05-05 05:37 | 0.17463 | 36.45219 | 38141 ft | 489 kts | 184° |
| 2026-05-05 05:37 | 0.10682 | 36.44544 | 38149 ft | 488 kts | 184° |
| 2026-05-05 05:38 | 0.03918 | 36.43871 | 38158 ft | 488 kts | 184° |
| 2026-05-05 05:38 | -0.02854 | 36.43198 | 38174 ft | 487 kts | 184° |
| 2026-05-05 05:39 | -0.09567 | 36.42530 | 38167 ft | 487 kts | 184° |
| 2026-05-05 05:39 | -0.16302 | 36.41859 | 38173 ft | 486 kts | 184° |
| 2026-05-05 05:40 | -0.23036 | 36.41189 | 38169 ft | 486 kts | 184° |
| 2026-05-05 05:40 | -0.29770 | 36.40520 | 38180 ft | 486 kts | 184° |
| 2026-05-05 05:41 | -0.36505 | 36.39849 | 38181 ft | 486 kts | 184° |
| 2026-05-05 05:41 | -0.43238 | 36.39179 | 38195 ft | 486 kts | 184° |
| 2026-05-05 05:42 | -0.49965 | 36.38510 | 38201 ft | 486 kts | 184° |
| 2026-05-05 05:42 | -0.56674 | 36.37842 | 38199 ft | 486 kts | 184° |
| 2026-05-05 05:43 | -0.63414 | 36.37181 | 38220 ft | 486 kts | 184° |
| 2026-05-05 05:43 | -0.70151 | 36.36532 | 38207 ft | 485 kts | 184° |
| 2026-05-05 05:44 | -0.76876 | 36.35881 | 38212 ft | 485 kts | 184° |
| 2026-05-05 05:44 | -0.83550 | 36.35234 | 38205 ft | 484 kts | 184° |
| 2026-05-05 05:45 | -0.90264 | 36.34550 | 38223 ft | 484 kts | 185° |
| 2026-05-05 05:45 | -0.96964 | 36.33843 | 38210 ft | 483 kts | 184° |
| 2026-05-05 05:46 | -1.03660 | 36.33143 | 38222 ft | 483 kts | 184° |
| 2026-05-05 05:46 | -1.10303 | 36.32452 | 38207 ft | 483 kts | 184° |
| 2026-05-05 05:47 | -1.16996 | 36.31780 | 38202 ft | 483 kts | 184° |
| 2026-05-05 05:47 | -1.23693 | 36.31126 | 38192 ft | 482 kts | 184° |
| 2026-05-05 05:48 | -1.30335 | 36.30472 | 38191 ft | 483 kts | 184° |
| 2026-05-05 05:48 | -1.37025 | 36.29808 | 38199 ft | 483 kts | 184° |
| 2026-05-05 05:49 | -1.43374 | 36.29158 | 38191 ft | 483 kts | 184° |
| 2026-05-05 05:49 | -1.49745 | 36.28505 | 38195 ft | 483 kts | 184° |
| 2026-05-05 05:50 | -1.56445 | 36.27835 | 38203 ft | 483 kts | 184° |
| 2026-05-05 05:50 | -1.63146 | 36.27174 | 38175 ft | 484 kts | 184° |
| 2026-05-05 05:51 | -1.69805 | 36.26515 | 38181 ft | 484 kts | 184° |
| 2026-05-05 05:51 | -1.76504 | 36.25851 | 38179 ft | 484 kts | 184° |
| 2026-05-05 05:52 | -1.83213 | 36.25185 | 38177 ft | 484 kts | 184° |
| 2026-05-05 05:52 | -1.89908 | 36.24519 | 38183 ft | 484 kts | 184° |
| 2026-05-05 05:53 | -1.96615 | 36.23853 | 38182 ft | 484 kts | 184° |
| 2026-05-05 05:53 | -2.03323 | 36.23187 | 38180 ft | 484 kts | 184° |
| 2026-05-05 05:54 | -2.09959 | 36.22527 | 38163 ft | 484 kts | 184° |
| 2026-05-05 05:54 | -2.16620 | 36.21865 | 38172 ft | 483 kts | 184° |
| 2026-05-05 05:55 | -2.23316 | 36.21200 | 38179 ft | 483 kts | 184° |
| 2026-05-05 05:55 | -2.30009 | 36.20533 | 38163 ft | 483 kts | 184° |
| 2026-05-05 05:56 | -2.36703 | 36.19864 | 38184 ft | 484 kts | 184° |
| 2026-05-05 05:56 | -2.43402 | 36.19195 | 38181 ft | 484 kts | 184° |
| 2026-05-05 05:57 | -2.50110 | 36.18525 | 38199 ft | 484 kts | 184° |
| 2026-05-05 05:57 | -2.56781 | 36.17860 | 38203 ft | 485 kts | 184° |
| 2026-05-05 05:58 | -2.63443 | 36.17195 | 38214 ft | 485 kts | 184° |
| 2026-05-05 05:58 | -2.70157 | 36.16524 | 38201 ft | 485 kts | 184° |
| 2026-05-05 05:59 | -2.75293 | 36.16011 | 38209 ft | 485 kts | 184° |
| 2026-05-05 05:59 | -2.82001 | 36.15340 | 38223 ft | 484 kts | 183° |
| 2026-05-05 06:00 | -2.88665 | 36.14671 | 38230 ft | 484 kts | 183° |
| 2026-05-05 06:00 | -2.95362 | 36.13999 | 38237 ft | 483 kts | 183° |
| 2026-05-05 06:01 | -3.02063 | 36.13327 | 38237 ft | 484 kts | 183° |
| 2026-05-05 06:01 | -3.08760 | 36.12656 | 38252 ft | 484 kts | 183° |
| 2026-05-05 06:02 | -3.15453 | 36.11971 | 38241 ft | 484 kts | 184° |
| 2026-05-05 06:02 | -3.22142 | 36.11180 | 38241 ft | 484 kts | 185° |
| 2026-05-05 06:03 | -3.28804 | 36.10334 | 38241 ft | 484 kts | 185° |
| 2026-05-05 06:03 | -3.35485 | 36.09484 | 38243 ft | 484 kts | 185° |
| 2026-05-05 06:04 | -3.42169 | 36.08643 | 38246 ft | 484 kts | 185° |
| 2026-05-05 06:04 | -3.48848 | 36.07805 | 38242 ft | 484 kts | 185° |
| 2026-05-05 06:05 | -3.55528 | 36.06967 | 38245 ft | 484 kts | 185° |
| 2026-05-05 06:05 | -3.62205 | 36.06128 | 38237 ft | 484 kts | 185° |
| 2026-05-05 06:06 | -3.68882 | 36.05290 | 38237 ft | 483 kts | 185° |
| 2026-05-05 06:06 | -3.75558 | 36.04471 | 38234 ft | 483 kts | 184° |
| 2026-05-05 06:07 | -3.82239 | 36.03660 | 38231 ft | 483 kts | 184° |
| 2026-05-05 06:07 | -3.88912 | 36.02848 | 38230 ft | 483 kts | 185° |
| 2026-05-05 06:08 | -3.95535 | 36.02039 | 38229 ft | 483 kts | 185° |
| 2026-05-05 06:08 | -4.02204 | 36.01224 | 38228 ft | 482 kts | 185° |
| 2026-05-05 06:09 | -4.08852 | 36.00412 | 38218 ft | 482 kts | 185° |
| 2026-05-05 06:09 | -4.15501 | 35.99599 | 38221 ft | 481 kts | 185° |
| 2026-05-05 06:10 | -4.22142 | 35.98787 | 38221 ft | 481 kts | 184° |
| 2026-05-05 06:10 | -4.28780 | 35.97976 | 38222 ft | 480 kts | 184° |
| 2026-05-05 06:11 | -4.35412 | 35.97165 | 38215 ft | 480 kts | 185° |
| 2026-05-05 06:11 | -4.42044 | 35.96354 | 38216 ft | 480 kts | 185° |
| 2026-05-05 06:12 | -4.48680 | 35.95542 | 38210 ft | 480 kts | 185° |
| 2026-05-05 06:12 | -4.55317 | 35.94720 | 38217 ft | 481 kts | 185° |
| 2026-05-05 06:13 | -4.61959 | 35.93891 | 38217 ft | 481 kts | 185° |
| 2026-05-05 06:13 | -4.68603 | 35.93062 | 38217 ft | 481 kts | 185° |
| 2026-05-05 06:14 | -4.75247 | 35.92235 | 38216 ft | 481 kts | 185° |
| 2026-05-05 06:14 | -4.81895 | 35.91407 | 38200 ft | 482 kts | 185° |
| 2026-05-05 06:15 | -4.88503 | 35.90584 | 38204 ft | 481 kts | 185° |
| 2026-05-05 06:15 | -4.95151 | 35.89756 | 38196 ft | 481 kts | 185° |
| 2026-05-05 06:16 | -5.01803 | 35.88927 | 38195 ft | 482 kts | 185° |
| 2026-05-05 06:16 | -5.08450 | 35.88099 | 38191 ft | 481 kts | 185° |
| 2026-05-05 06:17 | -5.15095 | 35.87270 | 38182 ft | 481 kts | 185° |
| 2026-05-05 06:17 | -5.21735 | 35.86442 | 38178 ft | 481 kts | 185° |
| 2026-05-05 06:18 | -5.28369 | 35.85615 | 38175 ft | 480 kts | 185° |
| 2026-05-05 06:18 | -5.35012 | 35.84786 | 38163 ft | 480 kts | 185° |
| 2026-05-05 06:19 | -5.41644 | 35.83960 | 38167 ft | 480 kts | 185° |
| 2026-05-05 06:19 | -5.47155 | 35.83274 | 38159 ft | 480 kts | 185° |
| 2026-05-05 06:20 | -5.53786 | 35.82448 | 38161 ft | 480 kts | 185° |
| 2026-05-05 06:20 | -5.60419 | 35.81621 | 38159 ft | 480 kts | 185° |
| 2026-05-05 06:21 | -5.67056 | 35.80795 | 38152 ft | 480 kts | 185° |
| 2026-05-05 06:21 | -5.73688 | 35.79984 | 38151 ft | 480 kts | 184° |
| 2026-05-05 06:22 | -5.80272 | 35.79182 | 38148 ft | 480 kts | 184° |
| 2026-05-05 06:22 | -5.86896 | 35.78373 | 38140 ft | 479 kts | 185° |
| 2026-05-05 06:23 | -5.93516 | 35.77563 | 38161 ft | 479 kts | 185° |
| 2026-05-05 06:23 | -6.00128 | 35.76754 | 38167 ft | 478 kts | 185° |
| 2026-05-05 06:24 | -6.06729 | 35.75946 | 38186 ft | 478 kts | 185° |
| 2026-05-05 06:24 | -6.13335 | 35.75137 | 38183 ft | 478 kts | 185° |
| 2026-05-05 06:25 | -6.19893 | 35.74047 | 38185 ft | 479 kts | 191° |
| 2026-05-05 06:25 | -6.26360 | 35.72418 | 38189 ft | 479 kts | 192° |
| 2026-05-05 06:26 | -6.32827 | 35.70759 | 38169 ft | 480 kts | 192° |